createdAt,value
2019-03-04T00:02:42.125Z,6.50
2019-03-04T00:07:45.367Z,6.54
2019-03-04T00:12:48.615Z,6.53
2019-03-04T00:17:51.847Z,6.51
2019-03-04T00:22:55.121Z,6.50
2019-03-04T00:27:58.363Z,6.54
2019-03-04T00:33:01.638Z,6.52
2019-03-04T00:38:04.896Z,6.48
2019-03-04T00:43:08.143Z,6.52
2019-03-04T00:48:11.446Z,6.53
2019-03-04T00:53:14.687Z,6.54
2019-03-04T00:58:17.931Z,6.63
2019-03-04T01:03:21.224Z,6.67
2019-03-04T01:08:24.455Z,7.20
2019-03-04T01:13:27.688Z,7.49
2019-03-04T01:18:30.928Z,7.62
2019-03-04T01:23:34.169Z,7.75
2019-03-04T01:28:37.433Z,7.59
2019-03-04T01:33:40.703Z,7.54
2019-03-04T01:38:44.121Z,7.64
2019-03-04T01:43:47.381Z,7.68
2019-03-04T01:48:50.653Z,7.62
2019-03-04T01:53:53.903Z,7.59
2019-03-04T01:58:57.186Z,7.54
2019-03-04T02:04:00.453Z,7.50
2019-03-04T02:09:03.882Z,7.46
2019-03-04T02:14:07.226Z,7.47
2019-03-04T02:19:10.456Z,7.46
2019-03-04T02:24:20.259Z,7.46
2019-03-04T02:29:23.510Z,7.45
2019-03-04T02:34:26.877Z,7.33
2019-03-04T02:39:30.134Z,7.19
2019-03-04T02:44:33.383Z,7.21
2019-03-04T02:49:36.675Z,7.32
2019-03-04T02:54:39.933Z,7.30
2019-03-04T02:59:43.227Z,7.50
2019-03-04T03:04:46.537Z,7.49
2019-03-04T03:09:50.078Z,7.39
2019-03-04T03:14:53.344Z,7.30
2019-03-04T03:19:56.663Z,7.17
2019-03-04T03:25:00.441Z,7.25
2019-03-04T03:30:03.694Z,7.15
2019-03-04T03:35:08.799Z,7.13
2019-03-04T03:40:11.865Z,7.05
2019-03-04T03:45:15.210Z,7.29
2019-03-04T03:50:18.583Z,7.38
2019-03-04T03:55:21.817Z,7.41
2019-03-04T04:00:25.214Z,7.40
2019-03-04T04:05:28.463Z,7.29
2019-03-04T04:10:31.728Z,7.33
2019-03-04T04:15:34.954Z,7.29
2019-03-04T04:20:38.357Z,7.12
2019-03-04T04:25:41.595Z,7.23
2019-03-04T04:30:44.945Z,7.28
2019-03-04T04:35:48.173Z,7.15
2019-03-04T04:40:51.436Z,7.10
2019-03-04T04:45:54.685Z,7.14
2019-03-04T04:50:57.934Z,7.21
2019-03-04T04:56:01.195Z,7.03
2019-03-04T05:01:04.462Z,7.35
2019-03-04T05:06:07.841Z,7.25
2019-03-04T05:11:11.065Z,6.98
2019-03-04T05:16:14.453Z,6.87
2019-03-04T05:21:17.871Z,6.80
2019-03-04T05:26:21.093Z,6.78
2019-03-04T05:31:24.378Z,6.78
2019-03-04T05:36:27.667Z,6.59
2019-03-04T05:41:30.923Z,6.52
2019-03-04T05:46:34.170Z,6.42
2019-03-04T05:51:37.442Z,6.33
2019-03-04T05:56:40.739Z,6.32
2019-03-04T06:01:51.797Z,6.70
2019-03-04T06:06:58.458Z,6.81
2019-03-04T06:12:01.735Z,6.93
2019-03-04T06:17:05.044Z,7.00
2019-03-04T06:22:08.351Z,6.92
2019-03-04T06:27:11.604Z,6.88
2019-03-04T06:32:14.865Z,7.09
2019-03-04T06:37:18.102Z,7.37
2019-03-04T06:42:21.380Z,7.41
2019-03-04T06:47:24.616Z,7.30
2019-03-04T06:52:27.851Z,7.36
2019-03-04T06:57:36.068Z,7.58
2019-03-04T07:02:39.382Z,7.49
2019-03-04T07:07:42.614Z,7.38
2019-03-04T07:12:45.883Z,7.28
2019-03-04T07:17:49.118Z,7.28
2019-03-04T07:22:52.364Z,7.29
2019-03-04T07:27:55.730Z,7.72
2019-03-04T07:32:59.050Z,8.02
2019-03-04T07:38:14.674Z,8.30
2019-03-04T07:43:18.020Z,8.43
2019-03-04T07:48:21.253Z,8.54
2019-03-04T07:53:24.578Z,8.69
2019-03-04T07:58:27.877Z,8.93
2019-03-04T08:03:31.201Z,9.07
2019-03-04T08:08:36.333Z,9.17
2019-03-04T08:13:43.493Z,9.33
2019-03-04T08:18:46.758Z,9.66
2019-03-04T08:23:50.056Z,10.02
2019-03-04T08:28:58.654Z,10.23
2019-03-04T08:33:59.799Z,10.47
2019-03-04T08:39:05.281Z,10.51
2019-03-04T08:44:08.550Z,10.44
2019-03-04T08:49:11.858Z,10.62
2019-03-04T08:54:15.191Z,10.95
2019-03-04T08:59:18.463Z,11.08
2019-03-04T09:04:21.758Z,11.48
2019-03-04T09:09:25.094Z,11.35
2019-03-04T09:14:28.442Z,11.14
2019-03-04T09:19:31.771Z,11.13
2019-03-04T09:24:35.078Z,11.36
2019-03-04T09:29:38.407Z,11.60
2019-03-04T09:34:41.724Z,11.60
2019-03-04T09:39:44.949Z,11.56
2019-03-04T09:44:48.186Z,11.39
2019-03-04T09:49:51.540Z,12.05
2019-03-04T09:54:54.913Z,12.29
2019-03-04T09:59:58.255Z,13.29
2019-03-04T10:05:10.506Z,13.08
2019-03-04T10:10:31.830Z,13.45
2019-03-04T10:18:52.162Z,13.29
2019-03-04T10:24:21.311Z,13.11
2019-03-04T10:29:34.591Z,13.19
2019-03-04T10:34:58.602Z,13.09
2019-03-04T10:41:19.555Z,12.76
2019-03-04T10:46:55.792Z,12.45
2019-03-04T10:51:59.075Z,12.19
2019-03-04T10:57:02.316Z,11.69
2019-03-04T11:02:05.677Z,11.49
2019-03-04T11:07:08.993Z,11.32
2019-03-04T11:12:14.099Z,11.49
2019-03-04T11:17:15.620Z,11.59
2019-03-04T11:22:18.948Z,11.63
2019-03-04T11:27:22.297Z,11.55
2019-03-04T11:32:28.762Z,11.45
2019-03-04T11:37:32.045Z,11.53
2019-03-04T11:42:35.327Z,11.55
2019-03-04T11:47:38.658Z,11.68
2019-03-04T11:52:42.084Z,11.72
2019-03-04T11:57:45.358Z,11.65
2019-03-04T12:02:48.761Z,11.55
2019-03-04T12:07:52.219Z,11.63
2019-03-04T12:12:56.624Z,11.48
2019-03-04T12:17:59.975Z,11.39
2019-03-04T12:23:03.293Z,11.25
2019-03-04T12:28:06.580Z,11.23
2019-03-04T12:33:10.587Z,11.18
2019-03-04T12:38:13.910Z,11.17
2019-03-04T12:43:17.153Z,11.17
2019-03-04T12:48:21.523Z,11.25
2019-03-04T12:53:24.806Z,11.57
2019-03-04T12:58:28.062Z,11.70
2019-03-04T13:03:31.322Z,11.60
2019-03-04T13:08:34.636Z,11.54
2019-03-04T13:13:37.980Z,11.43
2019-03-04T13:18:41.262Z,11.15
2019-03-04T13:23:44.566Z,10.95
2019-03-04T13:28:47.909Z,10.79
2019-03-04T13:33:51.181Z,10.66
2019-03-04T13:38:54.477Z,10.56
2019-03-04T13:43:57.805Z,10.45
2019-03-04T13:49:01.076Z,10.42
2019-03-04T13:54:04.396Z,10.38
2019-03-04T13:59:07.723Z,10.37
2019-03-04T14:04:10.953Z,10.33
2019-03-04T14:09:14.254Z,10.28
2019-03-04T14:14:17.557Z,10.30
2019-03-04T14:19:20.823Z,10.28
2019-03-04T14:24:24.162Z,10.31
2019-03-04T14:29:27.479Z,10.30
2019-03-04T14:34:30.805Z,10.20
2019-03-04T14:39:34.069Z,10.21
2019-03-04T14:44:37.386Z,10.20
2019-03-04T14:49:44.766Z,10.23
2019-03-04T14:54:43.900Z,10.19
2019-03-04T14:59:47.202Z,10.09
2019-03-04T15:04:50.441Z,9.95
2019-03-04T15:09:53.759Z,9.90
2019-03-04T15:14:57.021Z,9.83
2019-03-04T15:20:08.984Z,9.76
2019-03-04T15:25:03.940Z,9.71
2019-03-04T15:30:08.969Z,9.66
2019-03-04T15:35:12.396Z,9.65
2019-03-04T15:40:15.816Z,9.62
2019-03-04T15:45:19.191Z,9.52
2019-03-04T15:50:22.471Z,9.44
2019-03-04T15:55:25.834Z,9.39
2019-03-04T16:00:29.108Z,9.38
2019-03-04T16:05:32.507Z,9.26
2019-03-04T16:10:37.150Z,9.22
2019-03-04T16:15:41.763Z,9.22
2019-03-04T16:20:45.147Z,9.25
2019-03-04T16:25:48.579Z,9.22
2019-03-04T16:30:52.030Z,9.20
2019-03-04T16:35:55.343Z,9.17
2019-03-04T16:40:58.612Z,9.05
2019-03-04T16:46:01.907Z,9.07
2019-03-04T16:51:05.392Z,8.98
2019-03-04T16:56:08.694Z,9.04
2019-03-04T17:01:12.500Z,8.94
2019-03-04T17:06:17.348Z,8.84
2019-03-04T17:11:19.189Z,8.78
2019-03-04T17:16:22.483Z,8.69
2019-03-04T17:21:25.822Z,8.54
2019-03-04T17:26:29.202Z,8.51
2019-03-04T17:31:32.810Z,8.42
2019-03-04T17:36:36.126Z,8.44
2019-03-04T17:41:39.453Z,8.73
2019-03-04T17:46:42.739Z,8.23
2019-03-04T17:51:46.026Z,7.77
2019-03-04T17:56:50.015Z,7.51
2019-03-04T18:01:53.392Z,7.25
2019-03-04T18:06:56.690Z,7.22
2019-03-04T18:11:59.993Z,7.27
2019-03-04T18:17:03.353Z,7.28
2019-03-04T18:22:06.730Z,7.22
2019-03-04T18:27:16.166Z,7.17
2019-03-04T18:33:34.962Z,7.12
2019-03-04T18:39:05.775Z,7.12
2019-03-04T18:44:20.495Z,7.10
2019-03-04T18:49:24.161Z,7.12
2019-03-04T18:54:27.517Z,7.14
2019-03-04T18:59:31.937Z,7.17
2019-03-04T19:04:35.685Z,7.17
2019-03-04T19:09:39.843Z,7.14
2019-03-04T19:14:43.465Z,7.11
2019-03-04T19:19:46.934Z,7.12
2019-03-04T19:24:50.349Z,7.08
2019-03-04T19:29:53.737Z,6.96
2019-03-04T19:34:57.541Z,6.19
2019-03-04T19:40:01.123Z,5.83
2019-03-04T19:45:05.014Z,5.51
2019-03-04T19:50:08.966Z,5.40
2019-03-04T19:55:12.765Z,5.30
2019-03-04T20:00:18.177Z,5.30
2019-03-04T20:05:21.651Z,5.30
2019-03-04T20:10:25.115Z,5.26
2019-03-04T20:15:28.442Z,5.15
2019-03-04T20:20:32.137Z,5.06
2019-03-04T20:25:35.500Z,5.18
2019-03-04T20:30:38.937Z,5.06
2019-03-04T20:35:42.309Z,4.94
2019-03-04T20:40:45.769Z,4.91
2019-03-04T20:45:49.351Z,4.85
2019-03-04T20:50:52.681Z,4.72
2019-03-04T20:55:56.010Z,4.63
2019-03-04T21:00:59.440Z,4.61
2019-03-04T21:06:03.080Z,4.46
2019-03-04T21:11:06.647Z,4.39
2019-03-04T21:16:10.024Z,4.39
2019-03-04T21:21:13.358Z,4.23
2019-03-04T21:26:25.842Z,4.29
2019-03-04T21:31:36.474Z,4.25
2019-03-04T21:36:48.579Z,4.11
2019-03-04T21:42:01.089Z,4.29
2019-03-04T21:47:25.953Z,4.12
2019-03-04T21:52:51.692Z,4.35
2019-03-04T21:57:56.594Z,4.36
2019-03-04T22:03:35.348Z,4.53
2019-03-04T22:08:39.102Z,4.63
2019-03-04T22:13:42.825Z,4.66
2019-03-04T22:18:46.870Z,4.58
2019-03-04T22:23:50.162Z,4.57
2019-03-04T22:28:54.799Z,4.38
2019-03-04T22:33:58.291Z,4.33
2019-03-04T22:39:01.709Z,4.30
2019-03-04T22:44:05.447Z,4.44
2019-03-04T22:49:08.854Z,4.30
2019-03-04T22:54:12.373Z,4.28
2019-03-04T22:59:16.033Z,4.26
2019-03-04T23:04:23.178Z,4.07
2019-03-04T23:09:27.837Z,4.17
2019-03-04T23:14:31.256Z,4.19
2019-03-04T23:19:34.666Z,4.18
2019-03-04T23:24:37.894Z,4.25
2019-03-04T23:29:41.267Z,4.17
2019-03-04T23:34:44.713Z,4.31
2019-03-04T23:39:47.974Z,4.23
2019-03-04T23:44:51.439Z,4.33
2019-03-04T23:50:25.221Z,4.36
2019-03-04T23:55:28.485Z,4.24
